createdAt,value
2023-04-20T00:00:00.611Z,4.84
2023-04-20T00:02:27.694Z,4.90
2023-04-20T00:05:00.615Z,4.93
2023-04-20T00:07:27.628Z,5.00
2023-04-20T00:10:00.571Z,5.01
2023-04-20T00:12:33.603Z,4.98
2023-04-20T00:15:06.814Z,5.04
2023-04-20T00:17:33.827Z,5.05
2023-04-20T00:20:07.566Z,5.07
2023-04-20T00:22:34.311Z,5.10
2023-04-20T00:25:07.601Z,5.11
2023-04-20T00:27:34.430Z,5.16
2023-04-20T00:30:07.588Z,5.12
2023-04-20T00:32:40.680Z,5.15
2023-04-20T00:35:14.634Z,5.14
2023-04-20T00:37:41.800Z,5.07
2023-04-20T00:40:15.583Z,5.05
2023-04-20T00:42:42.635Z,4.98
2023-04-20T00:45:16.603Z,4.96
2023-04-20T00:47:49.791Z,4.95
2023-04-20T00:50:17.373Z,4.95
2023-04-20T00:52:51.562Z,4.92
2023-04-20T00:55:19.852Z,4.88
2023-04-20T00:57:59.742Z,4.89
2023-04-20T01:00:33.158Z,4.91
2023-04-20T01:03:06.739Z,4.96
2023-04-20T01:05:34.299Z,4.95
2023-04-20T01:08:07.634Z,5.19
2023-04-20T01:10:34.551Z,5.27
2023-04-20T01:13:01.321Z,5.30
2023-04-20T01:15:34.606Z,5.41
2023-04-20T01:18:01.510Z,5.49
2023-04-20T01:20:34.676Z,5.60
2023-04-20T01:23:01.682Z,5.66
2023-04-20T01:25:34.558Z,5.74
2023-04-20T01:28:02.312Z,5.79
2023-04-20T01:30:36.631Z,5.86
2023-04-20T01:33:03.492Z,5.88
2023-04-20T01:35:30.553Z,5.96
2023-04-20T01:38:03.741Z,5.96
2023-04-20T01:40:36.719Z,6.00
2023-04-20T01:43:03.465Z,6.11
2023-04-20T01:45:36.650Z,6.09
2023-04-20T01:48:03.535Z,6.14
2023-04-20T01:50:36.650Z,6.16
2023-04-20T01:53:03.635Z,6.20
2023-04-20T01:55:36.678Z,6.28
2023-04-20T01:58:10.076Z,6.32
2023-04-20T02:00:43.672Z,6.34
2023-04-20T02:03:11.350Z,6.36
2023-04-20T02:05:44.714Z,6.43
2023-04-20T02:08:11.796Z,6.43
2023-04-20T02:10:44.619Z,6.45
2023-04-20T02:13:18.626Z,6.55
2023-04-20T02:15:45.434Z,6.61
2023-04-20T02:18:18.654Z,6.68
2023-04-20T02:20:46.381Z,6.70
2023-04-20T02:23:19.620Z,6.81
2023-04-20T02:25:52.617Z,6.88
2023-04-20T02:28:19.373Z,6.97
2023-04-20T02:30:52.759Z,7.05
2023-04-20T02:33:21.357Z,7.01
2023-04-20T02:35:54.597Z,7.06
2023-04-20T02:38:21.588Z,7.12
2023-04-20T02:40:54.592Z,7.15
2023-04-20T02:43:21.348Z,7.12
2023-04-20T02:45:54.631Z,7.16
2023-04-20T02:48:21.354Z,7.18
2023-04-20T02:50:48.190Z,7.19
2023-04-20T02:53:21.648Z,7.19
2023-04-20T02:55:48.422Z,7.17
2023-04-20T02:58:21.760Z,7.17
2023-04-20T03:00:54.805Z,7.17
2023-04-20T03:03:28.822Z,7.17
2023-04-20T03:05:56.863Z,7.18
2023-04-20T03:08:30.614Z,7.16
2023-04-20T03:10:57.304Z,7.21
2023-04-20T03:13:30.667Z,7.18
2023-04-20T03:15:57.415Z,7.20
2023-04-20T03:18:30.642Z,7.16
2023-04-20T03:20:57.470Z,7.15
2023-04-20T03:23:30.670Z,7.20
2023-04-20T03:25:57.817Z,7.21
2023-04-20T03:28:30.622Z,7.18
2023-04-20T03:31:03.689Z,7.20
2023-04-20T03:33:30.594Z,7.17
2023-04-20T03:36:03.735Z,7.20
2023-04-20T03:38:37.694Z,7.13
2023-04-20T03:41:11.876Z,7.11
2023-04-20T03:43:44.628Z,7.09
2023-04-20T03:46:17.674Z,7.08
2023-04-20T03:48:50.677Z,7.03
2023-04-20T03:51:17.575Z,7.05
2023-04-20T03:53:50.665Z,6.97
2023-04-20T03:56:17.516Z,6.98
2023-04-20T03:59:04.665Z,6.97
2023-04-20T04:01:32.469Z,6.95
2023-04-20T04:04:05.933Z,6.95
2023-04-20T04:06:33.257Z,6.94
2023-04-20T04:09:06.714Z,6.82
2023-04-20T04:11:33.525Z,6.90
2023-04-20T04:14:06.719Z,6.89
2023-04-20T04:16:39.661Z,6.86
2023-04-20T04:19:12.698Z,6.86
2023-04-20T04:21:39.526Z,6.80
2023-04-20T04:24:13.671Z,6.83
2023-04-20T04:26:46.841Z,6.80
2023-04-20T04:29:20.722Z,6.81
2023-04-20T04:31:54.060Z,6.79
2023-04-20T04:34:27.718Z,6.69
2023-04-20T04:37:00.691Z,6.76
2023-04-20T04:39:28.661Z,6.78
2023-04-20T04:42:04.826Z,6.74
2023-04-20T04:44:31.997Z,6.74
2023-04-20T04:47:20.816Z,6.77
2023-04-20T04:49:54.970Z,6.77
2023-04-20T04:52:29.792Z,6.71
2023-04-20T04:54:56.529Z,6.77
2023-04-20T04:57:29.696Z,6.75
2023-04-20T05:00:07.205Z,6.76
2023-04-20T05:02:40.960Z,6.75
2023-04-20T05:05:15.836Z,6.70
2023-04-20T05:07:48.721Z,6.67
2023-04-20T05:10:15.732Z,6.70
2023-04-20T05:12:48.732Z,6.73
2023-04-20T05:15:15.614Z,6.70
2023-04-20T05:17:42.380Z,6.76
2023-04-20T05:20:17.767Z,6.77
2023-04-20T05:22:44.822Z,6.75
2023-04-20T05:25:18.679Z,6.79
2023-04-20T05:27:51.709Z,6.82
2023-04-20T05:30:21.703Z,6.82
2023-04-20T05:32:51.903Z,6.82
2023-04-20T05:35:26.783Z,6.83
2023-04-20T05:37:53.449Z,6.83
2023-04-20T05:40:26.716Z,6.88
2023-04-20T05:42:53.784Z,6.89
2023-04-20T05:45:26.826Z,6.90
2023-04-20T05:47:57.575Z,6.88
2023-04-20T05:50:31.756Z,6.90
2023-04-20T05:52:58.805Z,6.93
2023-04-20T05:55:32.764Z,6.94
2023-04-20T05:58:06.258Z,6.95
2023-04-20T06:00:45.814Z,6.96
2023-04-20T06:03:13.293Z,6.94
2023-04-20T06:05:46.766Z,6.93
2023-04-20T06:08:13.638Z,6.94
2023-04-20T06:10:46.840Z,6.94
2023-04-20T06:13:13.656Z,6.96
2023-04-20T06:15:40.564Z,6.98
2023-04-20T06:18:13.916Z,6.97
2023-04-20T06:20:41.040Z,6.98
2023-04-20T06:23:13.761Z,6.89
2023-04-20T06:25:40.860Z,6.87
2023-04-20T06:28:07.977Z,6.85
2023-04-20T06:30:41.869Z,6.85
2023-04-20T06:33:14.760Z,6.89
2023-04-20T06:35:41.800Z,6.95
2023-04-20T06:38:15.804Z,6.97
2023-04-20T06:40:49.805Z,7.04
2023-04-20T06:43:22.758Z,7.13
2023-04-20T06:45:55.919Z,7.24
2023-04-20T06:48:30.909Z,7.28
2023-04-20T06:51:04.807Z,7.31
2023-04-20T06:53:31.587Z,7.33
2023-04-20T06:56:04.804Z,7.33
2023-04-20T06:58:37.848Z,7.23
2023-04-20T07:01:17.885Z,7.15
2023-04-20T07:03:53.962Z,7.12
2023-04-20T07:06:27.761Z,7.09
2023-04-20T07:08:54.525Z,7.10
2023-04-20T07:11:21.255Z,7.06
2023-04-20T07:13:54.755Z,7.15
2023-04-20T07:16:21.549Z,7.23
2023-04-20T07:18:54.773Z,7.33
2023-04-20T07:21:27.770Z,7.35
2023-04-20T07:24:02.825Z,7.41
2023-04-20T07:26:29.539Z,7.34
2023-04-20T07:29:02.850Z,7.29
2023-04-20T07:31:29.782Z,7.16
2023-04-20T07:34:02.750Z,7.09
2023-04-20T07:36:30.498Z,7.03
2023-04-20T07:39:03.810Z,7.08
2023-04-20T07:41:30.478Z,7.18
2023-04-20T07:44:03.864Z,7.33
2023-04-20T07:46:37.789Z,7.55
2023-04-20T07:49:10.882Z,7.68
2023-04-20T07:51:37.647Z,7.69
2023-04-20T07:54:11.928Z,7.75
2023-04-20T07:56:44.812Z,7.76
2023-04-20T07:59:18.134Z,7.81
2023-04-20T08:01:58.911Z,7.86
2023-04-20T08:04:26.062Z,7.89
2023-04-20T08:06:59.757Z,7.82
2023-04-20T08:09:26.700Z,7.81
2023-04-20T08:11:59.784Z,7.75
2023-04-20T08:14:26.629Z,7.85
2023-04-20T08:16:59.826Z,7.99
2023-04-20T08:19:33.779Z,8.09
2023-04-20T08:22:06.913Z,8.15
2023-04-20T08:24:33.617Z,8.37
2023-04-20T08:27:00.543Z,8.59
2023-04-20T08:29:33.741Z,8.75
2023-04-20T08:32:00.823Z,8.85
2023-04-20T08:34:34.348Z,8.79
2023-04-20T08:37:01.866Z,8.82
2023-04-20T08:39:34.911Z,8.76
2023-04-20T08:42:02.495Z,8.81
2023-04-20T08:44:35.761Z,8.84
2023-04-20T08:47:03.459Z,8.76
2023-04-20T08:49:37.832Z,8.76
2023-04-20T08:52:04.580Z,8.83
2023-04-20T08:54:42.809Z,8.84
2023-04-20T08:57:16.549Z,8.89
2023-04-20T08:59:56.880Z,8.85
2023-04-20T09:02:24.020Z,8.78
2023-04-20T09:05:13.926Z,8.90
2023-04-20T09:07:47.831Z,8.81
2023-04-20T09:10:20.887Z,8.99
2023-04-20T09:12:47.598Z,9.03
2023-04-20T09:15:34.851Z,9.14
2023-04-20T09:18:19.821Z,9.17
2023-04-20T09:20:52.803Z,9.19
2023-04-20T09:23:23.897Z,9.22
2023-04-20T09:25:59.870Z,9.19
2023-04-20T09:28:36.405Z,9.25
2023-04-20T09:31:09.825Z,9.11
2023-04-20T09:33:44.948Z,8.84
2023-04-20T09:36:12.074Z,8.85
2023-04-20T09:38:39.226Z,9.21
2023-04-20T09:41:13.866Z,9.74
2023-04-20T09:43:48.911Z,10.07
2023-04-20T09:46:23.033Z,10.30
2023-04-20T09:48:56.875Z,10.49
2023-04-20T09:51:28.024Z,10.42
2023-04-20T09:54:02.896Z,10.26
2023-04-20T09:56:30.898Z,10.13
2023-04-20T09:59:12.849Z,10.02
2023-04-20T10:01:39.659Z,10.01
2023-04-20T10:04:21.114Z,10.12
2023-04-20T10:07:09.868Z,10.25
2023-04-20T10:09:38.077Z,10.34
2023-04-20T10:12:16.851Z,10.43
2023-04-20T10:14:51.824Z,10.43
2023-04-20T10:17:30.185Z,10.29
2023-04-20T10:20:03.825Z,10.14
2023-04-20T10:22:35.584Z,10.02
2023-04-20T10:25:20.865Z,10.11
2023-04-20T10:28:01.834Z,10.36
2023-04-20T10:30:37.865Z,10.52
2023-04-20T10:33:13.965Z,10.91
2023-04-20T10:35:52.802Z,10.80
2023-04-20T10:38:38.820Z,11.07
2023-04-20T10:41:10.525Z,11.52
2023-04-20T10:43:49.922Z,11.65
2023-04-20T10:46:24.479Z,11.32
2023-04-20T10:49:01.925Z,11.00
2023-04-20T10:51:28.925Z,10.64
2023-04-20T10:54:12.907Z,10.59
2023-04-20T10:56:48.223Z,10.50
2023-04-20T10:59:25.840Z,10.33
2023-04-20T11:01:52.728Z,10.35
2023-04-20T11:04:37.952Z,10.37
2023-04-20T11:07:07.463Z,10.37
2023-04-20T11:09:40.920Z,10.48
2023-04-20T11:12:08.645Z,10.64
2023-04-20T11:14:44.881Z,10.75
2023-04-20T11:17:18.058Z,10.68
2023-04-20T11:19:52.185Z,10.65
2023-04-20T11:22:30.223Z,10.52
2023-04-20T11:25:13.892Z,10.69
2023-04-20T11:27:43.376Z,11.02
2023-04-20T11:30:18.641Z,11.05
2023-04-20T11:33:01.082Z,10.92
2023-04-20T11:35:41.933Z,10.68
2023-04-20T11:38:15.960Z,10.71
2023-04-20T11:40:42.778Z,10.72
2023-04-20T11:43:15.893Z,10.61
2023-04-20T11:45:42.777Z,10.41
2023-04-20T11:48:15.961Z,10.35
2023-04-20T11:50:43.481Z,10.34
2023-04-20T11:53:22.026Z,10.35
2023-04-20T11:55:49.517Z,10.37
2023-04-20T11:58:16.358Z,10.36
2023-04-20T12:00:50.010Z,10.31
2023-04-20T12:03:23.069Z,10.30
2023-04-20T12:05:56.916Z,10.31
2023-04-20T12:08:24.975Z,10.17
2023-04-20T12:10:58.808Z,10.30
2023-04-20T12:13:25.877Z,10.31
2023-04-20T12:15:58.986Z,10.44
2023-04-20T12:18:25.957Z,10.62
2023-04-20T12:20:58.902Z,10.79
2023-04-20T12:23:25.874Z,10.88
2023-04-20T12:25:58.881Z,11.07
2023-04-20T12:28:31.877Z,11.15
2023-04-20T12:30:58.987Z,11.09
2023-04-20T12:33:31.978Z,11.07
2023-04-20T12:36:04.901Z,11.05
2023-04-20T12:38:38.046Z,10.88
2023-04-20T12:41:05.089Z,10.75
2023-04-20T12:43:38.003Z,10.64
2023-04-20T12:46:11.973Z,10.45
2023-04-20T12:48:44.997Z,10.35
2023-04-20T12:51:12.724Z,10.32
2023-04-20T12:53:46.020Z,10.30
2023-04-20T12:56:12.878Z,10.27
2023-04-20T12:58:59.966Z,10.33
2023-04-20T13:01:27.167Z,10.36
2023-04-20T13:03:54.424Z,10.40
2023-04-20T13:06:27.983Z,10.36
2023-04-20T13:08:54.822Z,10.46
2023-04-20T13:11:29.047Z,10.68
2023-04-20T13:13:58.168Z,11.34
2023-04-20T13:16:32.114Z,12.09
2023-04-20T13:18:58.997Z,12.24
2023-04-20T13:21:33.037Z,12.40
2023-04-20T13:24:00.004Z,12.49
2023-04-20T13:26:32.955Z,12.37
2023-04-20T13:28:59.736Z,12.43
2023-04-20T13:31:33.112Z,12.81
2023-04-20T13:34:00.127Z,13.27
2023-04-20T13:36:34.955Z,13.33
2023-04-20T13:39:08.948Z,12.96
2023-04-20T13:41:35.994Z,13.14
2023-04-20T13:44:09.973Z,13.17
2023-04-20T13:46:43.005Z,12.72
2023-04-20T13:49:12.715Z,12.38
2023-04-20T13:51:47.971Z,12.03
2023-04-20T13:54:14.817Z,11.80
2023-04-20T13:56:48.001Z,11.54
2023-04-20T13:59:21.987Z,11.46
2023-04-20T14:01:55.551Z,11.52
2023-04-20T14:04:29.079Z,11.91
2023-04-20T14:06:55.978Z,12.43
2023-04-20T14:09:29.072Z,12.50
2023-04-20T14:12:04.004Z,13.05
2023-04-20T14:14:37.091Z,13.51
2023-04-20T14:17:04.052Z,13.80
2023-04-20T14:19:38.192Z,13.47
2023-04-20T14:22:12.059Z,12.98
2023-04-20T14:24:38.873Z,13.20
2023-04-20T14:27:11.985Z,13.63
2023-04-20T14:29:38.810Z,14.03
2023-04-20T14:32:12.006Z,13.81
2023-04-20T14:34:38.805Z,13.20
2023-04-20T14:37:12.077Z,12.85
2023-04-20T14:39:38.908Z,12.59
2023-04-20T14:42:12.991Z,12.64
2023-04-20T14:44:46.254Z,12.98
2023-04-20T14:47:20.129Z,13.49
2023-04-20T14:49:47.801Z,14.06
2023-04-20T14:52:21.038Z,13.73
2023-04-20T14:54:47.908Z,13.57
2023-04-20T14:57:21.007Z,13.36
2023-04-20T15:00:00.976Z,13.11
2023-04-20T15:02:28.014Z,12.79
2023-04-20T15:05:01.161Z,12.53
2023-04-20T15:07:28.762Z,12.40
2023-04-20T15:10:01.991Z,12.85
2023-04-20T15:12:28.838Z,13.51
2023-04-20T15:15:02.088Z,14.09
2023-04-20T15:17:28.929Z,14.18
2023-04-20T15:20:02.060Z,13.73
2023-04-20T15:22:35.337Z,13.48
2023-04-20T15:25:09.145Z,13.18
2023-04-20T15:27:39.268Z,12.85
2023-04-20T15:30:07.011Z,12.66
2023-04-20T15:32:41.037Z,12.77
2023-04-20T15:35:08.036Z,13.27
2023-04-20T15:37:41.073Z,13.73
2023-04-20T15:40:08.621Z,13.89
2023-04-20T15:42:42.028Z,13.79
2023-04-20T15:45:09.280Z,13.36
2023-04-20T15:47:43.104Z,12.99
2023-04-20T15:50:10.361Z,12.69
2023-04-20T21:06:20.203Z,8.30
2023-04-20T21:08:53.247Z,8.34
2023-04-20T21:11:20.203Z,8.35
2023-04-20T21:13:54.206Z,8.34
2023-04-20T21:16:21.162Z,8.35
2023-04-20T21:18:54.543Z,8.36
2023-04-20T21:21:21.483Z,8.37
2023-04-20T21:23:56.276Z,8.34
2023-04-20T21:26:29.212Z,8.31
2023-04-20T21:28:56.351Z,8.37
2023-04-20T21:31:30.638Z,8.34
2023-04-20T21:33:58.232Z,8.36
2023-04-20T21:36:32.348Z,8.38
2023-04-20T21:38:59.342Z,8.39
2023-04-20T21:41:36.212Z,8.43
2023-04-20T21:44:03.399Z,8.45
2023-04-20T21:46:37.479Z,8.45
2023-04-20T21:49:04.440Z,8.43
2023-04-20T21:51:39.232Z,8.45
2023-04-20T21:54:06.437Z,8.44
2023-04-20T21:56:39.418Z,8.37
2023-04-20T21:59:13.223Z,8.35
2023-04-20T22:01:40.503Z,8.37
2023-04-20T22:04:14.460Z,8.42
2023-04-20T22:06:48.257Z,8.28
2023-04-20T22:09:21.297Z,8.36
2023-04-20T22:11:50.217Z,8.25
2023-04-20T22:14:24.244Z,8.15
2023-04-20T22:16:52.576Z,8.24
2023-04-20T22:19:26.221Z,8.15
2023-04-20T22:21:53.369Z,8.14
2023-04-20T22:24:27.293Z,8.20
2023-04-20T22:27:01.232Z,8.17
2023-04-20T22:29:28.694Z,8.14
2023-04-20T22:32:02.269Z,8.24
2023-04-20T22:34:35.285Z,8.22
2023-04-20T22:37:02.308Z,8.16
2023-04-20T22:39:35.301Z,8.30
2023-04-20T22:42:02.542Z,8.32
2023-04-20T22:44:44.028Z,8.21
2023-04-20T22:47:17.313Z,8.28
2023-04-20T22:49:44.288Z,8.36
2023-04-20T22:52:17.395Z,8.37
2023-04-20T22:54:48.466Z,8.35
2023-04-20T22:57:22.213Z,8.35
2023-04-20T22:59:58.247Z,8.35
2023-04-20T23:02:31.461Z,8.37
2023-04-20T23:04:58.618Z,8.37
2023-04-20T23:07:39.347Z,8.35
2023-04-20T23:10:14.334Z,8.35
2023-04-20T23:12:41.249Z,8.38
2023-04-20T23:15:16.440Z,8.39
2023-04-20T23:17:43.262Z,8.39
2023-04-20T23:20:20.332Z,8.36
2023-04-20T23:22:47.381Z,8.36
2023-04-20T23:25:21.343Z,8.35
2023-04-20T23:27:48.472Z,8.45
2023-04-20T23:30:22.357Z,8.45
2023-04-20T23:32:56.678Z,8.51
2023-04-20T23:35:30.270Z,8.53
2023-04-20T23:38:05.518Z,8.56
2023-04-20T23:40:39.205Z,8.45
2023-04-20T23:43:12.404Z,8.57
2023-04-20T23:45:39.282Z,8.64
2023-04-20T23:48:13.297Z,8.67
2023-04-20T23:50:40.458Z,8.68
2023-04-20T23:53:14.463Z,8.66
2023-04-20T23:55:41.591Z,8.65
2023-04-20T23:58:15.298Z,8.73
